YLJ weather

Meadow Lake Airport
Meadow Lake, Saskatchewan, Canada

Public forecast

Using degrees Celsius for public forecast. Weather courtesy of forecast.io.

METAR (pilot weather report)

Retrieved 2019/01/17 16:00 UTC (52 minutes ago):

CYLJ 171600Z 25005KT 15SM SKC M36/M39 A3035 RMK SLP341

TAF (pilot weather forecast)

Forecast is more than 6 hours old.

Closest forecast is CFB Cold Lake, 63.8 nm (118.2 km) WNW. Retrieved 2019/01/17 06:35 UTC (10 hours ago):

TAF CYOD 170530Z 1706/1806 03010KT P6SM -SN SCT050 BKN090 BECMG 1706/1708 P6SM NSW FEW050 FM171000 VRB03KT P6SM SKC RMK NXT FCST BY 171200Z